createdAt,value
2017-08-27T00:02:12.220Z,21.80
2017-08-27T00:04:39.793Z,21.70
2017-08-27T00:07:07.363Z,21.50
2017-08-27T00:09:34.955Z,21.40
2017-08-27T00:12:02.531Z,21.40
2017-08-27T00:14:30.098Z,21.40
2017-08-27T00:16:57.673Z,21.50
2017-08-27T00:19:25.272Z,21.40
2017-08-27T00:21:52.870Z,21.40
2017-08-27T00:24:20.454Z,21.40
2017-08-27T00:26:48.030Z,21.40
2017-08-27T00:29:15.618Z,21.40
2017-08-27T00:31:43.199Z,21.40
2017-08-27T00:34:10.774Z,21.30
2017-08-27T00:36:38.350Z,21.20
2017-08-27T00:39:05.967Z,21.20
2017-08-27T00:41:33.537Z,21.20
2017-08-27T00:44:01.102Z,21.30
2017-08-27T00:46:28.663Z,21.20
2017-08-27T00:48:56.237Z,21.20
2017-08-27T00:51:23.783Z,21.20
2017-08-27T00:53:51.383Z,21.20
2017-08-27T00:56:18.967Z,21.20
2017-08-27T00:58:46.544Z,21.10
2017-08-27T01:01:14.140Z,21.10
2017-08-27T01:03:41.727Z,21.00
2017-08-27T01:06:09.321Z,21.00
2017-08-27T01:08:36.886Z,21.00
2017-08-27T01:11:04.476Z,20.90
2017-08-27T01:13:32.863Z,21.00
2017-08-27T01:16:00.465Z,20.90
2017-08-27T01:18:28.040Z,20.80
2017-08-27T01:20:56.362Z,20.80
2017-08-27T01:23:23.937Z,20.80
2017-08-27T01:25:51.580Z,20.80
2017-08-27T01:28:19.191Z,20.80
2017-08-27T01:30:46.808Z,20.70
2017-08-27T01:33:14.370Z,20.70
2017-08-27T01:35:41.949Z,20.70
2017-08-27T01:38:10.326Z,20.60
2017-08-27T01:40:37.947Z,20.60
2017-08-27T01:43:06.106Z,20.50
2017-08-27T01:45:33.695Z,20.40
2017-08-27T01:48:01.280Z,20.30
2017-08-27T01:50:28.855Z,20.20
2017-08-27T01:52:56.436Z,20.30
2017-08-27T01:55:23.999Z,20.30
2017-08-27T01:57:54.183Z,20.30
2017-08-27T02:00:21.767Z,20.20
2017-08-27T02:02:49.382Z,20.20
2017-08-27T02:05:16.940Z,20.20
2017-08-27T02:07:44.511Z,20.20
2017-08-27T02:10:12.086Z,20.10
2017-08-27T02:12:39.659Z,20.10
2017-08-27T02:15:07.261Z,20.00
2017-08-27T02:17:35.646Z,20.00
2017-08-27T02:20:03.242Z,20.00
2017-08-27T02:22:30.817Z,19.90
2017-08-27T02:24:58.472Z,19.90
2017-08-27T02:27:26.057Z,20.00
2017-08-27T02:29:53.718Z,20.00
2017-08-27T02:32:21.323Z,19.90
2017-08-27T02:34:48.883Z,19.90
2017-08-27T02:37:16.481Z,19.90
2017-08-27T02:39:44.075Z,19.90
2017-08-27T02:42:11.682Z,19.90
2017-08-27T02:44:39.400Z,19.90
2017-08-27T02:47:06.985Z,19.80
2017-08-27T02:49:34.560Z,19.90
2017-08-27T02:52:02.180Z,19.90
2017-08-27T02:54:29.810Z,19.90
2017-08-27T02:56:57.440Z,19.80
2017-08-27T02:59:25.061Z,19.80
2017-08-27T03:01:52.603Z,19.80
2017-08-27T03:04:20.219Z,19.80
2017-08-27T03:06:47.830Z,19.80
2017-08-27T03:09:15.423Z,19.80
2017-08-27T03:11:42.989Z,19.80
2017-08-27T03:14:10.585Z,19.80
2017-08-27T03:16:38.168Z,19.80
2017-08-27T03:19:05.738Z,19.70
2017-08-27T03:21:33.308Z,19.60
2017-08-27T03:24:00.899Z,19.50
2017-08-27T03:26:28.501Z,19.50
2017-08-27T03:28:56.070Z,19.50
2017-08-27T03:31:23.625Z,19.50
2017-08-27T03:33:52.791Z,19.50
2017-08-27T03:36:20.369Z,19.50
2017-08-27T03:38:47.959Z,19.50
2017-08-27T03:41:15.531Z,19.50
2017-08-27T03:43:43.094Z,19.50
2017-08-27T03:46:10.680Z,19.50
2017-08-27T03:48:38.265Z,19.40
2017-08-27T03:51:05.844Z,19.40
2017-08-27T03:53:33.462Z,19.50
2017-08-27T03:56:01.034Z,19.50
2017-08-27T03:58:28.659Z,19.40
2017-08-27T04:00:56.240Z,19.40
2017-08-27T04:03:23.799Z,19.40
2017-08-27T04:05:53.390Z,19.40
2017-08-27T04:08:20.969Z,19.50
2017-08-27T04:10:48.551Z,19.40
2017-08-27T04:13:16.129Z,19.40
2017-08-27T04:15:43.719Z,19.40
2017-08-27T04:18:11.336Z,19.40
2017-08-27T04:20:38.919Z,19.30
2017-08-27T04:23:06.490Z,19.40
2017-08-27T04:25:34.071Z,19.30
2017-08-27T04:28:01.639Z,19.30
2017-08-27T04:30:29.217Z,19.20
2017-08-27T04:32:56.850Z,19.20
2017-08-27T04:35:24.421Z,19.10
2017-08-27T04:37:51.995Z,19.10
2017-08-27T04:40:19.563Z,19.10
2017-08-27T04:42:47.128Z,19.10
2017-08-27T04:45:15.568Z,19.20
2017-08-27T04:47:43.133Z,19.20
2017-08-27T04:50:10.699Z,19.20
2017-08-27T04:52:38.270Z,19.20
2017-08-27T04:55:05.866Z,19.20
2017-08-27T04:57:33.476Z,19.20
2017-08-27T05:00:01.072Z,19.20
2017-08-27T05:02:28.647Z,19.20
2017-08-27T05:04:56.228Z,19.20
2017-08-27T05:07:23.793Z,19.20
2017-08-27T05:09:51.363Z,19.20
2017-08-27T05:12:18.953Z,19.30
2017-08-27T05:14:46.510Z,19.30
2017-08-27T05:17:14.079Z,19.30
2017-08-27T05:19:41.659Z,19.30
2017-08-27T05:22:09.219Z,19.40
2017-08-27T05:24:36.811Z,19.50
2017-08-27T05:27:04.387Z,19.60
2017-08-27T05:29:31.955Z,19.60
2017-08-27T05:31:59.560Z,19.60
2017-08-27T05:34:27.171Z,19.60
2017-08-27T05:36:54.779Z,19.70
2017-08-27T05:39:22.411Z,19.80
2017-08-27T05:41:49.987Z,19.80
2017-08-27T05:44:17.558Z,19.90
2017-08-27T05:46:45.425Z,19.90
2017-08-27T05:49:13.018Z,20.00
2017-08-27T05:51:40.592Z,20.00
2017-08-27T05:54:08.176Z,20.10
2017-08-27T05:56:35.751Z,20.10
2017-08-27T05:59:03.358Z,20.10
2017-08-27T06:01:30.920Z,20.10
2017-08-27T06:03:59.092Z,20.10
2017-08-27T06:06:26.720Z,20.30
2017-08-27T06:08:54.294Z,20.20
2017-08-27T06:11:21.865Z,20.20
2017-08-27T06:13:49.473Z,20.20
2017-08-27T06:16:17.049Z,20.20
2017-08-27T06:18:44.608Z,20.30
2017-08-27T06:21:12.214Z,20.40
2017-08-27T06:23:39.795Z,20.40
2017-08-27T06:26:07.434Z,20.50
2017-08-27T06:28:35.018Z,20.60
2017-08-27T06:31:02.602Z,20.60
2017-08-27T06:33:30.176Z,20.70
2017-08-27T06:35:57.742Z,20.70
2017-08-27T06:38:25.376Z,20.70
2017-08-27T06:40:52.968Z,20.80
2017-08-27T06:43:20.544Z,20.90
2017-08-27T06:45:48.127Z,20.90
2017-08-27T06:48:15.690Z,20.90
2017-08-27T06:50:43.325Z,20.90
2017-08-27T06:53:10.901Z,21.00
2017-08-27T06:55:38.517Z,21.10
2017-08-27T06:58:06.136Z,21.20
2017-08-27T07:00:33.750Z,21.20
2017-08-27T07:03:01.339Z,21.10
2017-08-27T07:05:28.916Z,21.00
2017-08-27T07:07:56.562Z,21.10
2017-08-27T07:10:24.134Z,21.10
2017-08-27T07:12:51.715Z,21.00
2017-08-27T07:15:19.285Z,21.10
2017-08-27T07:17:46.892Z,21.20
2017-08-27T07:20:14.589Z,21.40
2017-08-27T07:22:42.176Z,21.40
2017-08-27T07:25:09.762Z,21.60
2017-08-27T07:27:37.380Z,21.70
2017-08-27T07:30:04.986Z,21.80
2017-08-27T07:32:32.590Z,21.90
2017-08-27T07:35:00.184Z,22.00
2017-08-27T07:37:27.815Z,22.20
2017-08-27T07:39:55.412Z,22.60
2017-08-27T07:42:23.399Z,22.80
2017-08-27T07:44:51.016Z,22.90
2017-08-27T07:47:18.598Z,23.00
2017-08-27T07:49:46.198Z,23.10
2017-08-27T07:52:13.791Z,23.00
2017-08-27T07:54:41.393Z,22.80
2017-08-27T07:57:08.974Z,22.80
2017-08-27T07:59:36.542Z,22.90
2017-08-27T08:02:04.134Z,23.20
2017-08-27T08:04:31.760Z,23.40
2017-08-27T08:06:59.365Z,23.50
2017-08-27T08:09:26.941Z,23.20
2017-08-27T08:11:54.530Z,23.10
2017-08-27T08:14:22.084Z,23.20
2017-08-27T08:16:49.668Z,23.10
2017-08-27T08:19:18.862Z,22.90
2017-08-27T08:21:46.423Z,23.00
2017-08-27T08:24:13.981Z,23.00
2017-08-27T08:26:41.579Z,23.20
2017-08-27T08:29:09.158Z,23.70
2017-08-27T08:31:36.735Z,23.70
2017-08-27T08:34:04.335Z,23.70
2017-08-27T08:36:31.901Z,23.80
2017-08-27T08:38:59.490Z,23.90
2017-08-27T08:41:27.047Z,23.90
2017-08-27T08:43:55.435Z,23.80
2017-08-27T08:46:23.007Z,24.00
2017-08-27T08:48:50.584Z,24.00
2017-08-27T08:51:18.162Z,24.30
2017-08-27T08:53:45.742Z,24.40
2017-08-27T08:56:13.309Z,24.50
2017-08-27T08:58:40.917Z,24.70
2017-08-27T09:01:08.502Z,24.80
2017-08-27T09:03:36.082Z,25.10
2017-08-27T09:06:03.658Z,24.70
2017-08-27T09:08:31.237Z,24.60
2017-08-27T09:10:58.846Z,24.40
2017-08-27T09:13:26.482Z,24.50
2017-08-27T09:15:54.079Z,24.50
2017-08-27T09:18:21.700Z,24.60
2017-08-27T09:20:49.322Z,24.60
2017-08-27T09:23:16.923Z,24.40
2017-08-27T09:25:44.528Z,24.60
2017-08-27T09:28:12.085Z,24.80
2017-08-27T09:30:39.680Z,25.00
2017-08-27T09:33:07.259Z,25.30
2017-08-27T09:35:34.853Z,25.60
2017-08-27T09:38:02.415Z,26.20
2017-08-27T09:40:30.039Z,26.10
2017-08-27T09:42:58.552Z,25.90
2017-08-27T09:45:26.869Z,26.40
2017-08-27T09:47:54.461Z,26.60
2017-08-27T09:50:22.043Z,26.80
2017-08-27T09:52:49.639Z,27.00
2017-08-27T09:55:17.212Z,27.00
2017-08-27T09:57:44.807Z,27.10
2017-08-27T10:00:12.853Z,27.00
2017-08-27T10:02:40.469Z,26.80
2017-08-27T10:05:08.210Z,26.60
2017-08-27T10:07:36.549Z,26.60
2017-08-27T10:10:04.978Z,27.00
2017-08-27T10:12:32.620Z,27.20
2017-08-27T10:15:00.238Z,27.30
2017-08-27T10:17:28.532Z,27.60
2017-08-27T10:19:57.267Z,27.60
2017-08-27T10:22:25.606Z,27.50
2017-08-27T10:24:53.363Z,27.40
2017-08-27T10:27:21.272Z,27.30
2017-08-27T10:29:48.890Z,27.20
2017-08-27T10:32:17.650Z,27.30
2017-08-27T10:34:46.524Z,26.70
2017-08-27T10:37:14.552Z,26.70
2017-08-27T10:39:42.268Z,27.30
2017-08-27T10:42:11.383Z,27.90
2017-08-27T10:44:38.977Z,28.30
2017-08-27T10:47:06.805Z,28.60
2017-08-27T10:49:34.626Z,29.40
2017-08-27T10:52:02.404Z,29.40
2017-08-27T10:54:31.071Z,29.10
2017-08-27T10:56:59.152Z,29.00
2017-08-27T10:59:28.417Z,28.00
2017-08-27T11:01:56.313Z,28.10
2017-08-27T11:04:24.055Z,27.80
2017-08-27T11:06:52.036Z,27.90
2017-08-27T11:09:21.856Z,27.00
2017-08-27T11:11:49.517Z,26.70
2017-08-27T11:14:17.448Z,26.80
2017-08-27T11:16:45.471Z,26.60
2017-08-27T11:19:13.100Z,26.30
2017-08-27T11:21:41.524Z,26.10
2017-08-27T11:24:09.254Z,26.20
2017-08-27T11:26:36.926Z,26.20
2017-08-27T11:29:04.576Z,26.30
2017-08-27T11:31:32.906Z,26.60
2017-08-27T11:34:00.714Z,26.90
2017-08-27T11:36:28.319Z,27.10
2017-08-27T11:38:55.930Z,27.30
2017-08-27T11:41:24.015Z,27.40
2017-08-27T11:43:51.845Z,27.80
2017-08-27T11:46:19.441Z,28.20
2017-08-27T11:48:47.030Z,28.30
2017-08-27T11:51:14.625Z,28.40
2017-08-27T11:53:42.248Z,28.40
2017-08-27T11:56:10.180Z,27.80
2017-08-27T11:58:38.011Z,27.50
2017-08-27T12:01:05.841Z,27.70
2017-08-27T12:03:33.696Z,28.00
2017-08-27T12:06:02.622Z,28.20
2017-08-27T12:08:30.443Z,28.60
2017-08-27T12:10:58.018Z,28.90
2017-08-27T12:13:25.643Z,29.20
2017-08-27T12:15:53.201Z,29.10
2017-08-27T12:18:21.101Z,29.10
2017-08-27T12:20:48.661Z,29.30
2017-08-27T12:23:16.255Z,28.70
2017-08-27T12:25:43.835Z,28.30
2017-08-27T12:28:11.548Z,28.30
2017-08-27T12:30:39.155Z,27.80
2017-08-27T12:33:06.745Z,27.50
2017-08-27T12:35:34.610Z,27.10
2017-08-27T12:38:02.520Z,27.20
2017-08-27T12:40:30.612Z,27.00
2017-08-27T12:42:58.232Z,26.60
2017-08-27T12:45:25.817Z,26.40
2017-08-27T12:47:53.444Z,26.20
2017-08-27T12:50:21.017Z,26.10
2017-08-27T12:52:48.608Z,26.00
2017-08-27T12:55:16.194Z,25.90
2017-08-27T12:57:43.820Z,25.70
2017-08-27T13:00:11.445Z,25.60
2017-08-27T13:02:39.034Z,25.60
2017-08-27T13:05:06.611Z,25.40
2017-08-27T13:07:34.178Z,25.30
2017-08-27T13:10:01.783Z,25.20
2017-08-27T13:12:29.387Z,25.10
2017-08-27T13:14:56.987Z,25.10
2017-08-27T13:17:24.546Z,25.40
2017-08-27T13:19:52.110Z,25.70
2017-08-27T13:22:19.697Z,25.70
2017-08-27T13:24:47.469Z,25.90
2017-08-27T13:27:15.074Z,25.90
2017-08-27T13:29:42.652Z,26.00
2017-08-27T13:32:10.754Z,26.20
2017-08-27T13:34:38.406Z,26.40
2017-08-27T13:37:06.022Z,26.50
2017-08-27T13:39:33.681Z,26.60
2017-08-27T13:42:01.285Z,26.30
2017-08-27T13:44:28.887Z,26.30
2017-08-27T13:46:56.496Z,26.50
2017-08-27T13:49:29.652Z,26.70
2017-08-27T13:51:57.242Z,26.90
2017-08-27T13:54:25.912Z,27.30
2017-08-27T13:56:53.509Z,27.50
2017-08-27T13:59:21.115Z,27.30
2017-08-27T14:01:50.279Z,27.60
2017-08-27T14:04:17.904Z,27.30
2017-08-27T14:06:45.517Z,27.30
2017-08-27T14:09:13.125Z,27.80
2017-08-27T14:11:40.717Z,28.20
2017-08-27T14:14:08.427Z,28.30
2017-08-27T14:16:36.048Z,28.30
2017-08-27T14:19:03.911Z,28.00
2017-08-27T14:21:31.551Z,28.80
2017-08-27T14:23:59.191Z,29.10
2017-08-27T14:26:26.812Z,29.30
2017-08-27T14:28:54.431Z,29.10
2017-08-27T14:31:22.045Z,29.10
2017-08-27T14:33:49.733Z,29.40
2017-08-27T14:36:17.447Z,29.40
2017-08-27T14:38:45.037Z,28.60
2017-08-27T14:41:12.651Z,28.20
2017-08-27T14:43:40.249Z,27.80
2017-08-27T14:46:07.818Z,27.20
2017-08-27T14:48:35.407Z,26.80
2017-08-27T14:51:02.995Z,26.50
2017-08-27T14:53:30.617Z,26.30
2017-08-27T14:55:58.221Z,26.20
2017-08-27T14:58:25.813Z,26.50
2017-08-27T15:00:53.415Z,26.60
2017-08-27T15:03:21.497Z,26.80
2017-08-27T15:05:53.718Z,26.80
2017-08-27T15:08:23.224Z,26.90
2017-08-27T15:10:51.122Z,26.80
2017-08-27T15:13:20.690Z,26.80
2017-08-27T15:15:48.282Z,26.80
2017-08-27T15:18:15.925Z,27.10
2017-08-27T15:20:59.104Z,27.20
2017-08-27T15:23:27.664Z,27.30
2017-08-27T15:25:55.248Z,27.70
2017-08-27T15:28:22.845Z,27.80
2017-08-27T15:30:51.414Z,27.90
2017-08-27T15:33:19.818Z,28.00
2017-08-27T15:35:47.422Z,28.20
2017-08-27T15:38:15.066Z,28.20
2017-08-27T15:40:42.950Z,28.30
2017-08-27T15:43:10.531Z,28.50
2017-08-27T15:45:38.161Z,29.00
2017-08-27T15:48:05.759Z,29.30
2017-08-27T15:50:33.493Z,29.50
2017-08-27T15:53:01.078Z,29.40
2017-08-27T15:55:28.680Z,29.60
2017-08-27T15:57:56.302Z,29.60
2017-08-27T16:00:24.062Z,29.20
2017-08-27T16:02:51.697Z,29.10
2017-08-27T16:05:19.330Z,29.20
2017-08-27T16:07:46.967Z,29.10
2017-08-27T16:10:14.913Z,28.90
2017-08-27T16:12:42.494Z,28.90
2017-08-27T16:15:10.070Z,28.50
2017-08-27T16:17:37.692Z,28.60
2017-08-27T16:20:05.478Z,28.60
2017-08-27T16:22:33.055Z,28.60
2017-08-27T16:25:00.727Z,28.40
2017-08-27T16:27:28.320Z,28.00
2017-08-27T16:29:55.900Z,27.90
2017-08-27T16:32:23.438Z,27.90
2017-08-27T16:34:51.078Z,27.80
2017-08-27T16:37:18.695Z,27.90
2017-08-27T16:39:46.314Z,27.70
2017-08-27T16:42:13.919Z,27.70
2017-08-27T16:44:41.567Z,27.80
2017-08-27T16:47:22.991Z,27.50
2017-08-27T16:49:50.615Z,27.40
2017-08-27T16:52:19.692Z,27.60
2017-08-27T16:54:47.302Z,27.60
2017-08-27T16:57:14.926Z,27.60
2017-08-27T16:59:42.601Z,27.50
2017-08-27T17:02:10.215Z,27.60
2017-08-27T17:04:37.801Z,27.40
2017-08-27T17:07:05.442Z,27.30
2017-08-27T17:09:33.477Z,27.30
2017-08-27T17:12:01.081Z,27.30
2017-08-27T17:14:28.679Z,27.10
2017-08-27T17:16:56.301Z,27.10
2017-08-27T17:19:23.928Z,26.90
2017-08-27T17:21:51.844Z,26.80
2017-08-27T17:24:19.442Z,26.70
2017-08-27T17:26:47.044Z,26.40
2017-08-27T17:29:14.671Z,26.30
2017-08-27T17:31:42.265Z,26.20
2017-08-27T17:34:09.890Z,26.10
2017-08-27T17:36:37.529Z,26.10
2017-08-27T17:39:06.928Z,26.00
2017-08-27T17:41:34.521Z,25.90
2017-08-27T17:44:02.156Z,25.80
2017-08-27T17:46:29.805Z,25.80
2017-08-27T17:48:57.447Z,25.80
2017-08-27T17:51:25.111Z,25.80
2017-08-27T17:53:52.716Z,25.80
2017-08-27T17:56:20.340Z,25.80
2017-08-27T17:58:47.935Z,25.80
2017-08-27T18:01:15.568Z,25.70
2017-08-27T18:03:44.491Z,25.60
2017-08-27T18:06:12.107Z,25.50
2017-08-27T18:08:39.751Z,25.40
2017-08-27T18:11:07.331Z,25.30
2017-08-27T18:13:34.923Z,25.30
2017-08-27T18:16:02.515Z,25.20
2017-08-27T18:18:30.134Z,25.10
2017-08-27T18:20:57.738Z,25.00
2017-08-27T18:23:25.457Z,24.90
2017-08-27T18:25:53.080Z,25.00
2017-08-27T18:28:20.654Z,24.90
2017-08-27T18:30:48.272Z,24.90
2017-08-27T18:33:15.909Z,24.80
2017-08-27T18:35:43.533Z,24.60
2017-08-27T18:38:11.172Z,24.60
2017-08-27T18:40:38.791Z,24.50
2017-08-27T18:43:07.239Z,24.40
2017-08-27T18:45:34.860Z,24.30
2017-08-27T18:48:02.460Z,24.30
2017-08-27T18:50:30.080Z,24.20
2017-08-27T18:52:57.703Z,24.10
2017-08-27T18:55:26.359Z,24.10
2017-08-27T18:57:53.976Z,24.00
2017-08-27T19:00:21.627Z,24.00
2017-08-27T19:03:03.879Z,24.00
2017-08-27T19:05:32.104Z,23.90
2017-08-27T19:07:59.692Z,23.90
2017-08-27T19:10:27.300Z,23.80
2017-08-27T19:12:54.886Z,23.70
2017-08-27T19:15:22.495Z,23.60
2017-08-27T19:17:50.104Z,23.50
2017-08-27T19:20:17.704Z,23.40
2017-08-27T19:22:45.311Z,23.40
2017-08-27T19:25:12.899Z,23.30
2017-08-27T19:27:40.635Z,23.30
2017-08-27T19:30:08.204Z,23.20
2017-08-27T19:32:35.794Z,23.10
2017-08-27T19:35:03.363Z,23.10
2017-08-27T19:37:30.967Z,23.10
2017-08-27T19:39:58.535Z,23.00
2017-08-27T19:42:26.130Z,23.00
2017-08-27T19:44:53.732Z,23.00
2017-08-27T19:47:21.312Z,22.90
2017-08-27T19:49:48.929Z,22.80
2017-08-27T19:52:16.522Z,22.80
2017-08-27T19:54:44.111Z,22.80
2017-08-27T19:57:11.693Z,22.80
2017-08-27T19:59:39.251Z,22.70
2017-08-27T20:02:06.849Z,22.60
2017-08-27T20:04:34.416Z,22.60
2017-08-27T20:07:02.060Z,22.50
2017-08-27T20:09:29.660Z,22.40
2017-08-27T20:11:57.480Z,22.40
2017-08-27T20:14:25.628Z,22.40
2017-08-27T20:16:53.858Z,22.30
2017-08-27T20:19:22.783Z,22.30
2017-08-27T20:21:51.776Z,22.20
2017-08-27T20:24:19.934Z,22.20
2017-08-27T20:26:47.666Z,22.10
2017-08-27T20:29:16.419Z,22.10
2017-08-27T20:31:45.054Z,22.00
2017-08-27T20:34:13.254Z,22.00
2017-08-27T20:36:41.287Z,21.90
2017-08-27T20:39:09.250Z,21.90
2017-08-27T20:41:38.398Z,21.80
2017-08-27T20:44:06.360Z,21.90
2017-08-27T20:46:34.331Z,21.80
2017-08-27T20:49:03.154Z,21.80
2017-08-27T20:51:31.203Z,21.70
2017-08-27T20:53:59.036Z,21.70
2017-08-27T20:56:26.949Z,21.70
2017-08-27T20:58:56.839Z,21.70
2017-08-27T21:01:24.562Z,21.60
2017-08-27T21:03:52.191Z,21.50
2017-08-27T21:06:19.780Z,21.50
2017-08-27T21:08:47.382Z,21.60
2017-08-27T21:11:14.967Z,21.50
2017-08-27T21:13:42.569Z,21.50
2017-08-27T21:16:10.691Z,21.40
2017-08-27T21:18:38.304Z,21.40
2017-08-27T21:21:05.895Z,21.30
2017-08-27T21:23:33.505Z,21.20
2017-08-27T21:26:01.107Z,21.20
2017-08-27T21:28:28.683Z,21.10
2017-08-27T21:30:56.297Z,21.00
2017-08-27T21:33:23.885Z,20.90
2017-08-27T21:35:51.492Z,20.90
2017-08-27T21:38:19.082Z,20.90
2017-08-27T21:40:46.688Z,20.80
2017-08-27T21:43:14.287Z,20.80
2017-08-27T21:45:42.019Z,20.60
2017-08-27T21:48:09.662Z,20.60
2017-08-27T21:50:37.250Z,20.60
2017-08-27T21:53:04.841Z,20.60
2017-08-27T21:55:32.406Z,20.60
2017-08-27T21:58:00.008Z,20.60
2017-08-27T22:00:34.616Z,20.60
2017-08-27T22:03:02.196Z,20.50
2017-08-27T22:05:29.767Z,20.40
2017-08-27T22:07:57.399Z,20.40
2017-08-27T22:10:25.030Z,20.30
2017-08-27T22:12:52.624Z,20.20
2017-08-27T22:15:20.235Z,20.20
2017-08-27T22:17:48.665Z,20.20
2017-08-27T22:20:16.250Z,20.20
2017-08-27T22:22:43.842Z,20.20
2017-08-27T22:25:11.450Z,20.20
2017-08-27T22:27:39.064Z,20.20
2017-08-27T22:30:06.678Z,20.10
2017-08-27T22:32:35.146Z,20.10
2017-08-27T22:35:02.756Z,20.10
2017-08-27T22:37:30.418Z,20.00
2017-08-27T22:39:58.659Z,20.00
2017-08-27T22:42:26.249Z,19.90
2017-08-27T22:44:53.850Z,19.80
2017-08-27T22:47:21.431Z,19.80
2017-08-27T22:49:49.022Z,19.80
2017-08-27T22:52:16.628Z,19.80
2017-08-27T22:54:44.216Z,19.80
2017-08-27T22:57:12.400Z,19.70
2017-08-27T22:59:40.052Z,19.60
2017-08-27T23:02:07.632Z,19.50
2017-08-27T23:04:35.194Z,19.50
2017-08-27T23:07:03.387Z,19.50
2017-08-27T23:09:30.979Z,19.50
2017-08-27T23:11:58.563Z,19.50
2017-08-27T23:14:26.124Z,19.50
2017-08-27T23:16:53.717Z,19.40
2017-08-27T23:19:21.298Z,19.40
2017-08-27T23:21:48.891Z,19.40
2017-08-27T23:24:16.467Z,19.40
2017-08-27T23:26:44.056Z,19.40
2017-08-27T23:29:11.611Z,19.30
2017-08-27T23:31:39.204Z,19.30
2017-08-27T23:34:06.791Z,19.30
2017-08-27T23:36:34.356Z,19.30
2017-08-27T23:39:01.966Z,19.30
2017-08-27T23:41:29.561Z,19.30
2017-08-27T23:43:57.163Z,19.30
2017-08-27T23:46:24.767Z,19.30
2017-08-27T23:48:52.367Z,19.30
2017-08-27T23:51:19.971Z,19.20
2017-08-27T23:53:47.575Z,19.20
2017-08-27T23:56:15.180Z,19.20
2017-08-27T23:58:42.853Z,19.10
